createdAt,value
2019-04-11T00:01:53.020Z,3.80
2019-04-11T00:04:24.133Z,3.90
2019-04-11T00:06:56.027Z,4.00
2019-04-11T00:14:29.561Z,4.20
2019-04-11T00:17:01.565Z,3.80
2019-04-11T00:19:33.559Z,3.80
2019-04-11T00:22:05.579Z,3.90
2019-04-11T00:24:36.776Z,3.90
2019-04-11T00:27:08.689Z,3.80
2019-04-11T00:29:40.764Z,3.70
2019-04-11T00:32:12.311Z,3.70
2019-04-11T00:34:42.950Z,3.70
2019-04-11T00:42:14.609Z,3.70
2019-04-11T00:44:47.999Z,3.50
2019-04-11T00:47:18.938Z,3.60
2019-04-11T00:49:50.450Z,3.60
2019-04-11T00:52:21.289Z,3.50
2019-04-11T00:54:53.143Z,3.40
2019-04-11T00:57:25.242Z,3.40
2019-04-11T00:59:56.508Z,3.30
2019-04-11T01:02:27.339Z,3.30
2019-04-11T01:04:59.165Z,3.40
2019-04-11T01:07:31.109Z,3.40
2019-04-11T01:10:02.148Z,3.40
2019-04-11T01:12:34.431Z,3.40
2019-04-11T01:15:07.028Z,3.50
2019-04-11T01:17:37.843Z,3.40
2019-04-11T01:20:08.807Z,3.50
2019-04-11T01:22:40.529Z,3.50
2019-04-11T01:25:13.226Z,3.60
2019-04-11T01:27:44.190Z,3.40
2019-04-11T01:30:18.520Z,3.40
2019-04-11T01:32:52.919Z,3.30
2019-04-11T01:35:23.598Z,3.40
2019-04-11T01:37:54.368Z,3.30
2019-04-11T01:40:25.549Z,3.30
2019-04-11T01:42:57.584Z,3.30
2019-04-11T01:45:29.510Z,3.20
2019-04-11T01:48:31.629Z,3.20
2019-04-11T01:51:02.403Z,3.20
2019-04-11T01:53:33.182Z,3.20
2019-04-11T01:56:05.053Z,3.10
2019-04-11T01:58:35.786Z,3.20
2019-04-11T02:01:13.336Z,3.20
2019-04-11T02:04:03.648Z,3.10
2019-04-11T02:06:34.514Z,3.00
2019-04-11T02:09:08.079Z,2.90
2019-04-11T02:11:39.443Z,2.90
2019-04-11T02:14:15.540Z,2.80
2019-04-11T02:16:43.291Z,2.80
2019-04-11T02:19:16.160Z,2.90
2019-04-11T02:22:43.686Z,2.80
2019-04-11T02:25:24.800Z,2.90
2019-04-11T02:27:56.152Z,2.80
2019-04-11T02:30:27.885Z,2.70
2019-04-11T02:33:00.352Z,2.60
2019-04-11T02:35:31.622Z,2.70
2019-04-11T02:38:02.965Z,2.60
2019-04-11T02:40:34.055Z,2.50
2019-04-11T02:43:06.848Z,2.60
2019-04-11T02:45:51.685Z,2.60
2019-04-11T02:48:12.231Z,2.50
2019-04-11T02:50:43.320Z,2.50
2019-04-11T02:53:14.810Z,2.50
2019-04-11T02:55:46.636Z,2.50
2019-04-11T02:58:18.672Z,2.50
2019-04-11T03:00:51.081Z,2.50
2019-04-11T03:03:23.175Z,2.40
2019-04-11T03:05:55.458Z,2.30
2019-04-11T03:08:28.198Z,2.20
2019-04-11T03:10:59.546Z,2.30
2019-04-11T03:13:30.407Z,2.20
2019-04-11T03:16:18.716Z,2.20
2019-04-11T03:18:53.050Z,2.10
2019-04-11T03:21:13.003Z,2.10
2019-04-11T03:23:39.836Z,2.20
2019-04-11T03:26:12.410Z,2.20
2019-04-11T03:28:47.412Z,2.10
2019-04-11T03:31:50.565Z,2.10
2019-04-11T03:37:08.720Z,2.00
2019-04-11T03:39:15.282Z,2.00
2019-04-11T03:41:42.828Z,2.00
2019-04-11T03:44:06.584Z,2.00
2019-04-11T03:46:48.113Z,2.00
2019-04-11T03:49:19.378Z,1.90
2019-04-11T03:51:37.105Z,1.80
2019-04-11T03:56:41.397Z,1.80
2019-04-11T03:59:16.111Z,1.80
2019-04-11T04:01:46.587Z,1.70
2019-04-11T04:04:20.004Z,1.60
2019-04-11T04:06:50.045Z,1.50
2019-04-11T04:09:21.026Z,1.50
2019-04-11T04:11:54.442Z,1.50
2019-04-11T04:14:34.634Z,1.40
2019-04-11T04:17:23.629Z,1.40
2019-04-11T04:20:21.488Z,1.30
2019-04-11T04:23:12.376Z,1.40
2019-04-11T04:25:46.817Z,1.40
2019-04-11T04:28:16.331Z,1.30
2019-04-11T04:30:47.290Z,1.20
2019-04-11T04:33:20.089Z,1.20
2019-04-11T04:35:51.746Z,1.10
2019-04-11T04:38:23.514Z,1.20
2019-04-11T04:41:08.860Z,1.20
2019-04-11T04:43:29.018Z,1.10
2019-04-11T04:46:20.338Z,1.10
2019-04-11T04:48:34.473Z,1.10
2019-04-11T04:51:08.881Z,0.90
2019-04-11T04:53:38.886Z,0.90
2019-04-11T04:56:11.109Z,0.80
2019-04-11T04:58:42.143Z,0.90
2019-04-11T05:01:14.957Z,0.80
2019-04-11T05:03:46.782Z,0.80
2019-04-11T05:06:18.639Z,0.80
2019-04-11T05:08:51.392Z,0.80
2019-04-11T05:11:23.136Z,0.80
2019-04-11T05:13:54.492Z,0.70
2019-04-11T05:16:25.500Z,0.70
2019-04-11T05:18:56.690Z,0.80
2019-04-11T05:21:29.674Z,0.80
2019-04-11T05:24:00.416Z,0.80
2019-04-11T05:26:31.440Z,0.90
2019-04-11T05:29:02.723Z,0.90
2019-04-11T05:31:34.427Z,1.00
2019-04-11T05:34:05.190Z,1.10
2019-04-11T05:36:36.620Z,1.10
2019-04-11T05:39:08.761Z,1.20
2019-04-11T05:42:19.523Z,1.40
2019-04-11T05:44:50.035Z,1.50
2019-04-11T05:47:21.441Z,1.60
2019-04-11T05:50:01.092Z,1.70
2019-04-11T05:52:33.775Z,1.80
2019-04-11T05:55:09.557Z,2.10
2019-04-11T05:57:43.060Z,2.30
2019-04-11T06:00:21.858Z,2.40
2019-04-11T06:02:57.544Z,2.60
2019-04-11T06:05:56.477Z,2.80
2019-04-11T06:08:28.453Z,3.10
2019-04-11T06:11:32.743Z,3.30
2019-04-11T06:14:09.312Z,3.60
2019-04-11T06:16:48.018Z,3.90
2019-04-11T06:19:34.782Z,4.00
2019-04-11T06:22:08.677Z,4.10
2019-04-11T06:25:13.973Z,4.00
2019-04-11T06:27:54.392Z,3.90
2019-04-11T06:30:59.479Z,4.00
2019-04-11T06:33:34.577Z,4.40
2019-04-11T06:36:18.131Z,5.20
2019-04-11T06:38:56.715Z,5.70
2019-04-11T06:41:46.425Z,5.80
2019-04-11T06:44:56.335Z,5.70
2019-04-11T06:47:56.963Z,6.00
2019-04-11T06:50:39.665Z,7.00
2019-04-11T06:53:12.018Z,7.20
2019-04-11T06:56:01.665Z,6.90
2019-04-11T06:58:39.493Z,7.40
2019-04-11T07:01:18.878Z,7.60
2019-04-11T07:04:09.240Z,7.40
2019-04-11T07:06:41.872Z,7.40
2019-04-11T07:09:41.418Z,7.20
2019-04-11T07:12:17.477Z,7.50
2019-04-11T07:15:10.780Z,7.50
2019-04-11T07:18:00.943Z,7.50
2019-04-11T07:20:49.911Z,8.00
2019-04-11T07:23:38.627Z,7.60
2019-04-11T07:26:21.535Z,7.80
2019-04-11T07:29:06.578Z,7.70
2019-04-11T07:31:48.396Z,8.20
2019-04-11T07:34:39.244Z,8.40
2019-04-11T07:37:28.124Z,8.30
2019-04-11T07:40:26.603Z,8.50
2019-04-11T07:43:19.478Z,8.40
2019-04-11T07:46:05.141Z,8.20
2019-04-11T07:48:38.609Z,8.10
2019-04-11T07:51:38.636Z,8.30
2019-04-11T07:54:18.091Z,8.30
2019-04-11T07:56:55.280Z,8.50
2019-04-11T07:59:45.161Z,8.70
2019-04-11T08:02:33.918Z,8.60
2019-04-11T08:05:30.227Z,8.50
2019-04-11T08:08:19.109Z,8.40
2019-04-11T08:11:09.508Z,8.40
2019-04-11T08:14:00.039Z,8.20
2019-04-11T08:16:48.998Z,8.00
2019-04-11T08:19:38.637Z,8.10
2019-04-11T08:22:27.495Z,8.00
2019-04-11T08:25:05.603Z,7.90
2019-04-11T08:27:52.089Z,8.00
2019-04-11T08:30:15.488Z,8.20
2019-04-11T08:32:49.808Z,7.70
2019-04-11T08:35:35.011Z,7.90
2019-04-11T08:38:08.046Z,7.70
2019-04-11T08:40:47.386Z,8.00
2019-04-11T08:43:23.308Z,8.20
2019-04-11T08:46:00.397Z,8.20
2019-04-11T08:48:33.080Z,8.10
2019-04-11T08:51:08.036Z,8.20
2019-04-11T08:53:57.251Z,8.10
2019-04-11T08:56:29.528Z,8.20
2019-04-11T08:59:29.736Z,8.50
2019-04-11T09:02:00.792Z,8.60
2019-04-11T09:04:50.313Z,8.20
2019-04-11T09:07:25.357Z,8.10
2019-04-11T09:10:14.088Z,8.10
2019-04-11T09:12:53.090Z,7.70
2019-04-11T09:15:41.739Z,8.20
2019-04-11T09:18:14.103Z,7.90
2019-04-11T09:21:09.905Z,8.60
2019-04-11T09:23:41.841Z,9.00
2019-04-11T09:26:20.851Z,8.60
2019-04-11T09:28:54.688Z,8.60
2019-04-11T09:31:43.980Z,9.00
2019-04-11T09:34:33.622Z,9.00
2019-04-11T09:37:09.370Z,8.30
2019-04-11T09:39:59.309Z,8.40
2019-04-11T09:42:53.381Z,8.30
2019-04-11T09:45:43.813Z,8.40
2019-04-11T09:48:33.534Z,8.60
2019-04-11T09:51:29.046Z,8.60
2019-04-11T09:54:06.388Z,8.60
2019-04-11T09:56:56.067Z,8.90
2019-04-11T09:59:53.916Z,8.70
2019-04-11T10:02:46.528Z,8.80
2019-04-11T10:05:20.163Z,8.00
2019-04-11T10:08:12.932Z,8.40
2019-04-11T10:11:01.769Z,8.50
2019-04-11T10:13:44.982Z,8.80
2019-04-11T10:16:47.033Z,8.30
2019-04-11T10:19:36.103Z,8.00
2019-04-11T10:22:27.075Z,7.80
2019-04-11T10:25:28.310Z,7.30
2019-04-11T10:28:29.740Z,7.40
2019-04-11T10:31:18.355Z,7.70
2019-04-11T10:34:07.471Z,7.70
2019-04-11T10:36:45.330Z,7.40
2019-04-11T10:39:38.121Z,7.00
2019-04-11T10:42:11.045Z,7.00
2019-04-11T10:45:00.353Z,7.20
2019-04-11T10:47:33.290Z,7.50
2019-04-11T10:50:17.527Z,7.50
2019-04-11T10:52:53.003Z,7.80
2019-04-11T10:55:53.681Z,8.30
2019-04-11T10:58:31.046Z,8.60
2019-04-11T11:01:30.178Z,9.20
2019-04-11T11:04:07.452Z,9.50
2019-04-11T11:06:38.271Z,9.30
2019-04-11T11:09:35.382Z,10.00
2019-04-11T11:12:32.857Z,9.40
2019-04-11T11:15:25.456Z,9.10
2019-04-11T11:18:41.194Z,8.60
2019-04-11T11:20:55.066Z,8.60
2019-04-11T11:23:42.729Z,8.70
2019-04-11T11:26:20.942Z,9.00
2019-04-11T11:29:10.405Z,8.80
2019-04-11T11:32:00.821Z,8.60
2019-04-11T11:34:35.104Z,8.90
2019-04-11T11:37:25.003Z,8.60
2019-04-11T11:40:18.028Z,8.60
2019-04-11T11:43:06.527Z,8.10
2019-04-11T11:45:56.321Z,8.40
2019-04-11T11:48:37.445Z,8.40
2019-04-11T11:51:29.610Z,8.10
2019-04-11T11:54:24.789Z,8.00
2019-04-11T11:56:58.231Z,7.20
2019-04-11T11:59:48.353Z,7.00
2019-04-11T12:02:44.409Z,6.90
2019-04-11T12:05:27.046Z,6.80
2019-04-11T12:08:14.751Z,6.60
2019-04-11T12:10:53.325Z,6.90
2019-04-11T12:13:47.347Z,6.80
2019-04-11T12:16:27.874Z,6.90
2019-04-11T12:19:04.690Z,6.80
2019-04-11T12:21:36.679Z,7.20
2019-04-11T12:24:30.415Z,7.20
2019-04-11T12:27:37.038Z,7.30
2019-04-11T12:30:30.502Z,7.70
2019-04-11T12:33:27.588Z,7.50
2019-04-11T12:36:16.737Z,7.90
2019-04-11T12:39:25.387Z,7.70
2019-04-11T12:42:01.604Z,8.00
2019-04-11T12:44:51.436Z,8.10
2019-04-11T12:47:41.420Z,7.80
2019-04-11T12:50:32.266Z,8.10
2019-04-11T12:53:20.775Z,7.90
2019-04-11T12:56:09.532Z,7.90
2019-04-11T12:58:58.391Z,7.20
2019-04-11T13:01:47.246Z,7.40
2019-04-11T13:04:45.024Z,7.10
2019-04-11T13:07:34.999Z,7.20
2019-04-11T13:10:32.457Z,7.00
2019-04-11T13:13:31.760Z,7.10
2019-04-11T13:16:12.891Z,7.10
2019-04-11T13:19:02.618Z,7.10
2019-04-11T13:21:53.552Z,7.30
2019-04-11T13:25:02.143Z,7.30
2019-04-11T13:27:40.045Z,7.10
2019-04-11T13:30:28.595Z,7.00
2019-04-11T13:33:01.727Z,7.10
2019-04-11T13:35:54.229Z,7.00
2019-04-11T13:38:28.891Z,7.20
2019-04-11T13:41:20.300Z,7.50
2019-04-11T13:44:17.327Z,7.40
2019-04-11T13:47:06.693Z,7.50
2019-04-11T13:49:44.248Z,7.60
2019-04-11T13:52:35.423Z,7.40
2019-04-11T13:55:18.561Z,7.30
2019-04-11T13:58:08.504Z,7.50
2019-04-11T14:00:58.393Z,7.40
2019-04-11T14:03:48.484Z,7.20
2019-04-11T14:06:27.603Z,6.80
2019-04-11T14:09:23.427Z,6.80
2019-04-11T14:12:04.845Z,6.80
2019-04-11T14:14:56.128Z,6.80
2019-04-11T14:17:45.499Z,7.10
2019-04-11T14:20:29.703Z,7.10
2019-04-11T14:23:21.367Z,6.80
2019-04-11T14:26:09.713Z,6.80
2019-04-11T14:29:09.220Z,6.70
2019-04-11T14:31:53.808Z,6.50
2019-04-11T14:34:56.255Z,6.50
2019-04-11T14:37:46.138Z,6.50
2019-04-11T14:40:33.768Z,6.50
2019-04-11T14:43:26.721Z,6.50
2019-04-11T14:46:22.852Z,6.40
2019-04-11T14:48:56.347Z,6.30
2019-04-11T14:51:49.404Z,6.20
2019-04-11T14:54:23.516Z,6.40
2019-04-11T14:57:22.828Z,6.60
2019-04-11T14:59:57.136Z,6.50
2019-04-11T15:02:45.483Z,6.50
2019-04-11T15:05:34.648Z,6.60
2019-04-11T15:08:06.108Z,6.50
2019-04-11T15:10:55.979Z,6.50
2019-04-11T15:13:29.683Z,6.20
2019-04-11T15:16:24.176Z,6.10
2019-04-11T15:18:57.993Z,6.00
2019-04-11T15:21:46.632Z,6.10
2019-04-11T15:24:18.524Z,6.20
2019-04-11T15:27:01.615Z,6.10
2019-04-11T15:29:34.902Z,6.10
2019-04-11T15:32:16.498Z,5.80
2019-04-11T15:34:52.804Z,5.80
2019-04-11T15:37:47.556Z,5.90
2019-04-11T15:40:22.386Z,5.90
2019-04-11T15:43:11.757Z,5.80
2019-04-11T15:46:01.143Z,5.80
2019-04-11T15:48:56.026Z,5.90
2019-04-11T15:51:37.677Z,5.80
2019-04-11T15:54:27.393Z,5.60
2019-04-11T15:57:17.274Z,5.40
2019-04-11T16:00:08.283Z,5.50
2019-04-11T16:02:53.864Z,5.50
2019-04-11T16:05:49.585Z,5.60
2019-04-11T16:08:43.771Z,5.60
2019-04-11T16:11:33.865Z,5.60
2019-04-11T16:14:29.572Z,5.60
2019-04-11T16:17:18.327Z,5.40
2019-04-11T16:20:08.107Z,5.50
2019-04-11T16:23:16.421Z,5.70
2019-04-11T16:25:56.475Z,5.80
2019-04-11T16:28:45.332Z,5.60
2019-04-11T16:31:16.369Z,5.70
2019-04-11T16:34:10.452Z,5.80
2019-04-11T16:37:06.376Z,5.70
2019-04-11T16:39:56.360Z,5.60
2019-04-11T16:42:53.778Z,5.60
2019-04-11T16:45:33.154Z,5.70
2019-04-11T16:48:03.171Z,5.60
2019-04-11T16:50:34.212Z,5.60
2019-04-11T16:53:05.252Z,5.50
2019-04-11T16:55:36.883Z,5.50
2019-04-11T16:58:09.170Z,5.40
2019-04-11T17:00:40.025Z,5.40
2019-04-11T17:03:11.006Z,5.40
2019-04-11T17:05:45.166Z,5.40
2019-04-11T17:08:35.047Z,5.40
2019-04-11T17:11:15.750Z,5.40
2019-04-11T17:13:46.962Z,5.30
2019-04-11T17:16:19.289Z,5.20
2019-04-11T17:18:50.283Z,5.10
2019-04-11T17:21:23.202Z,5.00
2019-04-11T17:23:53.568Z,5.10
2019-04-11T17:26:24.411Z,5.10
2019-04-11T17:28:55.316Z,5.10
2019-04-11T17:31:27.214Z,4.90
2019-04-11T17:34:01.426Z,5.00
2019-04-11T17:36:32.746Z,4.90
2019-04-11T17:39:06.758Z,4.90
2019-04-11T17:41:36.133Z,4.90
2019-04-11T17:44:07.130Z,4.80
2019-04-11T17:46:38.122Z,4.90
2019-04-11T17:49:10.910Z,4.90
2019-04-11T17:51:42.904Z,4.90
2019-04-11T17:54:14.314Z,4.70
2019-04-11T17:56:45.374Z,4.70
2019-04-11T17:59:16.326Z,4.70
2019-04-11T18:01:47.206Z,4.70
2019-04-11T18:04:18.177Z,4.70
2019-04-11T18:06:49.117Z,4.60
2019-04-11T18:09:20.481Z,4.60
2019-04-11T18:11:55.930Z,4.60
2019-04-11T18:14:26.449Z,4.70
2019-04-11T18:17:03.687Z,4.50
2019-04-11T18:19:30.882Z,4.50
2019-04-11T18:22:08.055Z,4.50
2019-04-11T18:24:36.773Z,4.60
2019-04-11T18:27:07.632Z,4.60
2019-04-11T18:29:38.517Z,4.60
2019-04-11T18:32:09.446Z,4.50
2019-04-11T18:37:10.541Z,4.50
2019-04-11T18:39:41.442Z,4.60
2019-04-11T18:42:12.345Z,4.40
2019-04-11T18:44:43.199Z,4.50
2019-04-11T18:47:14.353Z,4.40
2019-04-11T18:49:45.228Z,4.40
2019-04-11T18:52:19.845Z,4.40
2019-04-11T18:54:48.651Z,4.40
2019-04-11T18:57:21.343Z,4.40
2019-04-11T18:59:52.353Z,4.50
2019-04-11T19:02:23.341Z,4.40
2019-04-11T19:04:54.545Z,4.30
2019-04-11T19:07:27.896Z,4.30
2019-04-11T19:09:58.182Z,4.20
2019-04-11T19:12:29.099Z,4.20
2019-04-11T19:15:00.109Z,4.20
2019-04-11T19:17:32.049Z,4.30
2019-04-11T19:20:03.040Z,4.30
2019-04-11T19:22:37.386Z,4.30
2019-04-11T19:25:06.574Z,4.30
2019-04-11T19:27:37.658Z,4.40
2019-04-11T19:30:08.630Z,4.40
2019-04-11T19:32:40.500Z,4.40
2019-04-11T19:35:11.534Z,4.50
2019-04-11T19:37:42.737Z,4.40
2019-04-11T19:40:16.190Z,4.30
2019-04-11T19:42:48.800Z,4.40
2019-04-11T19:45:19.522Z,4.40
2019-04-11T19:47:52.237Z,4.40
2019-04-11T19:50:23.722Z,4.40
2019-04-11T19:52:54.580Z,4.40
2019-04-11T19:55:38.308Z,4.40
2019-04-11T19:58:09.432Z,4.40
2019-04-11T20:00:40.575Z,4.40
2019-04-11T20:03:11.371Z,4.40
2019-04-11T20:05:42.349Z,4.30
2019-04-11T20:08:13.340Z,4.40
2019-04-11T20:10:45.468Z,4.40
2019-04-11T20:13:16.305Z,4.40
2019-04-11T20:15:47.435Z,4.40
2019-04-11T20:18:22.139Z,4.30
2019-04-11T20:20:52.252Z,4.30
2019-04-11T20:23:24.364Z,4.40
2019-04-11T20:25:55.280Z,4.40
2019-04-11T20:28:26.897Z,4.40
2019-04-11T20:30:57.967Z,4.30
2019-04-11T20:33:33.712Z,4.30
2019-04-11T20:36:01.304Z,4.40
2019-04-11T20:38:32.258Z,4.30
2019-04-11T20:41:03.381Z,4.30
2019-04-11T20:43:34.303Z,4.20
2019-04-11T20:46:05.565Z,4.10
2019-04-11T20:48:36.425Z,4.10
2019-04-11T20:51:07.510Z,4.20
2019-04-11T20:53:38.514Z,4.20
2019-04-11T20:56:10.636Z,4.20
2019-04-11T20:58:41.706Z,4.10
2019-04-11T21:01:12.596Z,4.10
2019-04-11T21:03:45.291Z,4.10
2019-04-11T21:06:16.318Z,4.10
2019-04-11T21:08:47.284Z,4.10
2019-04-11T21:11:18.833Z,4.00
2019-04-11T21:13:49.703Z,4.00
2019-04-11T21:16:20.814Z,4.00
2019-04-11T21:18:54.459Z,3.90
2019-04-11T21:21:25.214Z,3.90
2019-04-11T21:23:57.987Z,3.90
2019-04-11T21:26:29.545Z,3.80
2019-04-11T21:29:00.463Z,3.70
2019-04-11T21:31:31.780Z,3.80
2019-04-11T21:34:03.064Z,3.80
2019-04-11T21:36:34.053Z,3.80
2019-04-11T21:39:05.750Z,3.80
2019-04-11T21:41:39.731Z,3.70
2019-04-11T21:44:10.461Z,3.80
2019-04-11T21:46:42.397Z,3.70
2019-04-11T21:49:13.405Z,3.70
2019-04-11T21:51:44.271Z,3.70
2019-04-11T21:54:15.659Z,3.60
2019-04-11T21:56:49.607Z,3.70
2019-04-11T21:59:22.500Z,3.70
2019-04-11T22:01:54.140Z,3.60
2019-04-11T22:04:27.160Z,3.60
2019-04-11T22:07:00.674Z,3.60
2019-04-11T22:09:33.018Z,3.60
2019-04-11T22:12:07.661Z,3.60
2019-04-11T22:14:41.433Z,3.60
2019-04-11T22:17:09.697Z,3.60
2019-04-11T22:19:40.504Z,3.60
2019-04-11T22:22:11.365Z,3.60
2019-04-11T22:24:42.274Z,3.60
2019-04-11T22:27:13.265Z,3.60
2019-04-11T22:29:44.341Z,3.50
2019-04-11T22:32:15.273Z,3.50
2019-04-11T22:34:47.335Z,3.50
2019-04-11T22:37:18.261Z,3.50
2019-04-11T22:39:48.948Z,3.50
2019-04-11T22:42:19.833Z,3.50
2019-04-11T22:44:50.878Z,3.50
2019-04-11T22:47:21.910Z,3.40
2019-04-11T22:49:52.888Z,3.40
2019-04-11T22:52:23.858Z,3.40
2019-04-11T22:54:54.922Z,3.40
2019-04-11T22:57:25.819Z,3.50
2019-04-11T22:59:56.631Z,3.50
2019-04-11T23:02:37.875Z,3.50
2019-04-11T23:05:08.741Z,3.40
2019-04-11T23:07:39.765Z,3.30
2019-04-11T23:10:10.632Z,3.40
2019-04-11T23:12:42.901Z,3.50
2019-04-11T23:15:15.057Z,3.50
2019-04-11T23:17:46.658Z,3.50
2019-04-11T23:20:17.566Z,3.40
2019-04-11T23:22:48.570Z,3.40
2019-04-11T23:25:19.641Z,3.40
2019-04-11T23:27:51.562Z,3.40
2019-04-11T23:30:23.993Z,3.50
2019-04-11T23:32:55.992Z,3.50
2019-04-11T23:35:26.981Z,3.50
2019-04-11T23:37:59.551Z,3.60
2019-04-11T23:40:30.477Z,3.50
2019-04-11T23:43:01.305Z,3.50
2019-04-11T23:45:32.727Z,3.60
2019-04-11T23:48:03.805Z,3.50
2019-04-11T23:50:34.745Z,3.40
2019-04-11T23:53:05.667Z,3.40
2019-04-11T23:55:36.581Z,3.30
2019-04-11T23:58:07.451Z,3.40
